< < Back
Terminal Aerodrome Forecast


Current Version              Previous Versions:   1  2  3  4  5  6  7  8  9  

Terminal Aerodrome Forecast

516
FTUS44 KMRX 291722
TAFCHA
TAF
KCHA 291722Z 2918/3018 22009KT P6SM BKN040
     FM291900 23010KT P6SM VCSH BKN040
     FM300200 20004KT P6SM BKN040
     FM300800 20004KT P6SM BKN025
      TEMPO 3009/3013 5SM BR BKN015
     FM301600 23007KT P6SM BKN035=

Latest METAR

320
SAUS80 KWBC 291700
MTRCHA
METAR KCHA 291653Z 21008KT 10SM SCT033 BKN047 BKN090 30/21 A3001 RMK AO2
SLP154 T03000206 $


USA.gov is the U.S. government's official web portal to all federal, state and local government web resources and services.